createdAt,value
2023-02-14T00:02:19.409Z,103263.25
2023-02-14T00:04:45.937Z,103255.25
2023-02-14T00:07:12.754Z,103266.25
2023-02-14T00:09:39.232Z,103260.00
2023-02-14T00:12:06.236Z,103261.63
2023-02-14T00:14:32.958Z,103263.00
2023-02-14T00:16:59.898Z,103262.91
2023-02-14T00:19:26.587Z,103258.34
2023-02-14T00:21:53.142Z,103263.28
2023-02-14T00:24:25.225Z,103252.34
2023-02-14T00:26:52.736Z,103257.19
2023-02-14T00:29:31.047Z,103261.31
2023-02-14T00:31:58.120Z,103263.47
2023-02-14T00:34:24.929Z,103257.06
2023-02-14T00:36:51.628Z,103262.69
2023-02-14T00:39:19.584Z,103259.72
2023-02-14T00:41:46.137Z,103253.22
2023-02-14T00:44:13.655Z,103257.03
2023-02-14T00:46:40.687Z,103250.63
2023-02-14T00:49:07.241Z,103253.56
2023-02-14T00:51:33.760Z,103254.03
2023-02-14T00:54:01.947Z,103248.38
2023-02-14T00:56:31.021Z,103241.19
2023-02-14T00:58:57.499Z,103241.66
2023-02-14T01:01:24.213Z,103248.94
2023-02-14T01:03:50.861Z,103251.06
2023-02-14T01:06:18.740Z,103249.75
2023-02-14T01:08:45.343Z,103245.09
2023-02-14T01:11:23.038Z,103240.38
2023-02-14T01:13:51.342Z,103242.59
2023-02-14T01:16:21.565Z,103240.50
2023-02-14T01:18:49.059Z,103242.75
2023-02-14T01:21:45.364Z,103244.00
2023-02-14T01:24:12.410Z,103239.44
2023-02-14T01:26:41.460Z,103240.81
2023-02-14T01:29:09.128Z,103235.25
2023-02-14T01:31:36.132Z,103234.81
2023-02-14T01:34:03.057Z,103233.81
2023-02-14T01:36:38.436Z,103228.06
2023-02-14T01:39:07.833Z,103232.06
2023-02-14T01:41:37.510Z,103239.06
2023-02-14T01:44:07.387Z,103224.84
2023-02-14T01:46:36.112Z,103224.63
2023-02-14T01:49:25.782Z,103231.53
2023-02-14T01:52:14.226Z,103220.88
2023-02-14T01:54:49.738Z,103226.44
2023-02-14T01:57:20.301Z,103212.00
2023-02-14T01:59:52.716Z,103231.66
2023-02-14T02:02:19.642Z,103226.22
2023-02-14T02:04:46.648Z,103226.91
2023-02-14T02:07:19.383Z,103203.97
2023-02-14T02:10:00.194Z,103218.66
2023-02-14T02:12:29.248Z,103213.31
2023-02-14T02:14:58.852Z,103220.91
2023-02-14T02:17:38.200Z,103210.44
2023-02-14T02:20:48.126Z,103213.66
2023-02-14T02:23:23.440Z,103211.66
2023-02-14T02:26:23.735Z,103208.88
2023-02-14T02:28:59.406Z,103212.22
2023-02-14T02:31:45.982Z,103212.00
2023-02-14T02:34:18.516Z,103203.31
2023-02-14T02:36:56.878Z,103215.09
2023-02-14T02:39:41.459Z,103214.09
2023-02-14T02:42:33.238Z,103214.09
2023-02-14T02:45:33.698Z,103199.44
2023-02-14T02:48:17.722Z,103211.31
2023-02-14T02:50:49.332Z,103207.53
2023-02-14T02:53:18.810Z,103208.63
2023-02-14T02:56:04.666Z,103204.22
2023-02-14T02:58:36.837Z,103204.09
2023-02-14T03:01:10.211Z,103203.19
2023-02-14T03:03:39.453Z,103203.97
2023-02-14T03:06:06.287Z,103199.66
2023-02-14T03:08:33.052Z,103206.44
2023-02-14T03:11:01.979Z,103201.97
2023-02-14T03:13:41.920Z,103195.06
2023-02-14T03:16:33.167Z,103204.41
2023-02-14T03:19:21.695Z,103187.19
2023-02-14T03:21:56.478Z,103189.75
2023-02-14T03:24:50.880Z,103185.28
2023-02-14T03:27:26.997Z,103186.19
2023-02-14T03:30:02.652Z,103182.41
2023-02-14T03:32:38.225Z,103180.88
2023-02-14T03:35:23.642Z,103177.44
2023-02-14T03:38:09.024Z,103181.63
2023-02-14T03:40:43.000Z,103170.53
2023-02-14T03:43:18.752Z,103170.66
2023-02-14T03:46:04.238Z,103169.75
2023-02-14T03:48:33.378Z,103166.19
2023-02-14T03:51:01.403Z,103174.97
2023-02-14T03:53:32.742Z,103172.66
2023-02-14T03:56:12.720Z,103172.66
2023-02-14T03:58:47.256Z,103166.66
2023-02-14T04:01:21.283Z,103167.53
2023-02-14T04:03:48.948Z,103166.00
2023-02-14T04:06:18.284Z,103163.97
2023-02-14T04:08:45.126Z,103176.44
2023-02-14T04:11:11.756Z,103164.09
2023-02-14T04:13:38.677Z,103163.53
2023-02-14T04:16:05.809Z,103167.31
2023-02-14T04:18:32.885Z,103166.53
2023-02-14T04:21:00.245Z,103167.88
2023-02-14T04:23:26.965Z,103160.31
2023-02-14T04:25:53.499Z,103158.88
2023-02-14T04:28:20.033Z,103163.22
2023-02-14T04:30:46.675Z,103160.97
2023-02-14T04:33:13.417Z,103162.09
2023-02-14T04:35:39.913Z,103172.66
2023-02-14T04:38:06.467Z,103172.00
2023-02-14T04:40:33.007Z,103175.53
2023-02-14T04:42:59.551Z,103171.53
2023-02-14T04:45:26.012Z,103171.09
2023-02-14T04:47:52.557Z,103169.63
2023-02-14T04:50:19.076Z,103162.16
2023-02-14T04:52:45.560Z,103159.72
2023-02-14T04:55:12.024Z,103157.47
2023-02-14T04:57:38.586Z,103157.72
2023-02-14T05:00:05.916Z,103149.25
2023-02-14T05:02:32.426Z,103164.81
2023-02-14T05:04:58.910Z,103163.25
2023-02-14T05:07:25.453Z,103166.81
2023-02-14T05:09:51.986Z,103169.47
2023-02-14T05:12:18.447Z,103172.13
2023-02-14T05:14:45.029Z,103165.47
2023-02-14T05:17:11.602Z,103165.47
2023-02-14T05:19:38.065Z,103167.13
2023-02-14T05:22:04.661Z,103165.47
2023-02-14T05:24:31.221Z,103162.78
2023-02-14T05:26:57.733Z,103157.44
2023-02-14T05:29:24.219Z,103161.91
2023-02-14T05:31:50.841Z,103168.56
2023-02-14T05:34:17.301Z,103171.94
2023-02-14T05:36:43.886Z,103165.81
2023-02-14T05:39:10.331Z,103164.03
2023-02-14T05:44:03.233Z,103174.06
2023-02-14T05:46:29.716Z,103172.94
2023-02-14T05:48:56.329Z,103175.28
2023-02-14T05:51:22.853Z,103173.38
2023-02-14T05:53:49.332Z,103170.63
2023-02-14T05:56:15.832Z,103173.97
2023-02-14T05:58:42.332Z,103171.09
2023-02-14T06:01:08.833Z,103163.19
2023-02-14T06:03:35.347Z,103166.44
2023-02-14T06:06:01.849Z,103167.97
2023-02-14T06:08:28.365Z,103165.19
2023-02-14T06:10:54.874Z,103160.63
2023-02-14T06:13:21.344Z,103157.88
2023-02-14T06:15:47.793Z,103161.09
2023-02-14T06:18:14.266Z,103154.97
2023-02-14T06:20:40.737Z,103155.66
2023-02-14T06:23:07.270Z,103169.00
2023-02-14T06:25:33.761Z,103174.00
2023-02-14T06:28:00.390Z,103167.09
2023-02-14T06:30:27.715Z,103166.00
2023-02-14T06:32:54.385Z,103174.66
2023-02-14T06:35:20.904Z,103167.75
2023-02-14T06:37:47.401Z,103168.66
2023-02-14T06:40:14.334Z,103172.09
2023-02-14T06:42:41.069Z,103173.09
2023-02-14T06:45:08.106Z,103181.22
2023-02-14T06:47:35.220Z,103184.22
2023-02-14T06:50:02.673Z,103184.66
2023-02-14T06:52:29.144Z,103179.97
2023-02-14T06:54:55.681Z,103188.88
2023-02-14T06:57:22.139Z,103189.19
2023-02-14T06:59:48.612Z,103183.41
2023-02-14T07:02:15.161Z,103186.41
2023-02-14T07:04:41.674Z,103183.16
2023-02-14T07:07:08.149Z,103178.16
2023-02-14T07:09:34.713Z,103186.03
2023-02-14T07:12:01.171Z,103184.38
2023-02-14T07:14:27.690Z,103176.81
2023-02-14T07:16:54.177Z,103178.47
2023-02-14T07:19:20.653Z,103190.38
2023-02-14T07:21:47.075Z,103198.81
2023-02-14T07:24:13.571Z,103192.94
2023-02-14T07:26:40.076Z,103187.81
2023-02-14T07:29:06.553Z,103191.28
2023-02-14T07:31:33.102Z,103193.16
2023-02-14T07:33:59.708Z,103209.50
2023-02-14T07:36:26.287Z,103207.16
2023-02-14T07:38:52.799Z,103204.81
2023-02-14T07:41:19.383Z,103215.28
2023-02-14T07:43:45.853Z,103212.91
2023-02-14T07:46:12.336Z,103215.72
2023-02-14T07:48:38.840Z,103217.69
2023-02-14T07:51:05.368Z,103215.38
2023-02-14T07:53:31.933Z,103213.00
2023-02-14T07:55:58.537Z,103228.56
2023-02-14T07:58:25.011Z,103227.00
2023-02-14T08:00:51.486Z,103227.22
2023-02-14T08:03:18.282Z,103224.88
2023-02-14T08:05:45.176Z,103219.88
2023-02-14T08:08:11.630Z,103225.41
2023-02-14T08:10:38.140Z,103227.28
2023-02-14T08:13:04.643Z,103230.97
2023-02-14T08:15:35.535Z,103219.25
2023-02-14T08:18:02.035Z,103211.88
2023-02-14T08:20:28.544Z,103219.97
2023-02-14T08:22:55.087Z,103229.75
2023-02-14T08:25:21.522Z,103229.38
2023-02-14T08:27:48.009Z,103223.00
2023-02-14T08:30:15.207Z,103226.09
2023-02-14T08:32:41.889Z,103219.78
2023-02-14T08:35:09.709Z,103228.00
2023-02-14T08:37:36.232Z,103229.50
2023-02-14T08:40:03.040Z,103229.22
2023-02-14T08:42:29.557Z,103232.31
2023-02-14T08:44:56.057Z,103235.63
2023-02-14T08:47:22.534Z,103230.41
2023-02-14T08:49:49.023Z,103236.28
2023-02-14T08:52:16.030Z,103240.59
2023-02-14T08:54:42.746Z,103243.16
2023-02-14T08:57:09.288Z,103235.53
2023-02-14T08:59:35.810Z,103234.81
2023-02-14T09:02:02.303Z,103236.34
2023-02-14T09:04:28.876Z,103235.69
2023-02-14T09:06:55.417Z,103235.41
2023-02-14T09:09:21.895Z,103230.06
2023-02-14T09:11:48.393Z,103226.50
2023-02-14T09:14:14.920Z,103232.97
2023-02-14T09:16:41.487Z,103238.81
2023-02-14T09:19:07.976Z,103236.59
2023-02-14T09:21:34.490Z,103239.13
2023-02-14T09:24:00.965Z,103238.25
2023-02-14T09:26:27.440Z,103241.72
2023-02-14T09:28:53.958Z,103244.38
2023-02-14T09:31:22.952Z,103231.38
2023-02-14T09:33:50.944Z,103227.81
2023-02-14T09:36:17.620Z,103232.72
2023-02-14T09:38:44.116Z,103239.38
2023-02-14T09:41:36.174Z,103240.06
2023-02-14T09:44:07.858Z,103222.22
2023-02-14T09:46:42.824Z,103225.66
2023-02-14T09:49:15.508Z,103222.88
2023-02-14T09:51:49.105Z,103231.34
2023-02-14T09:54:26.912Z,103238.84
2023-02-14T09:57:02.484Z,103231.53
2023-02-14T09:59:52.747Z,103218.03
2023-02-14T10:02:19.435Z,103231.50
2023-02-14T10:05:07.338Z,103224.06
2023-02-14T10:07:48.222Z,103221.59
2023-02-14T10:11:02.541Z,103219.88
2023-02-14T10:13:44.416Z,103224.38
2023-02-14T10:16:28.164Z,103219.00
2023-02-14T10:19:02.532Z,103209.28
2023-02-14T10:21:36.204Z,103223.00
2023-02-14T10:24:16.370Z,103214.03
2023-02-14T10:26:42.898Z,103214.38
2023-02-14T10:29:14.522Z,103205.19
2023-02-14T10:31:56.805Z,103208.25
2023-02-14T10:34:47.161Z,103197.19
2023-02-14T10:37:13.617Z,103215.84
2023-02-14T10:39:58.413Z,103217.00
2023-02-14T10:42:43.383Z,103212.69
2023-02-14T10:45:34.363Z,103210.94
2023-02-14T10:48:12.841Z,103208.97
2023-02-14T10:50:44.810Z,103202.75
2023-02-14T10:53:11.235Z,103204.34
2023-02-14T10:55:45.334Z,103195.56
2023-02-14T10:58:16.065Z,103182.19
2023-02-14T11:01:04.064Z,103190.53
2023-02-14T11:03:33.416Z,103190.25
2023-02-14T11:06:00.047Z,103189.47
2023-02-14T11:08:52.847Z,103195.66
2023-02-14T11:11:27.377Z,103190.22
2023-02-14T11:13:54.046Z,103187.41
2023-02-14T11:16:32.805Z,103186.22
2023-02-14T11:19:14.554Z,103187.56
2023-02-14T11:21:45.997Z,103185.28
2023-02-14T11:24:30.801Z,103180.44
2023-02-14T11:27:02.217Z,103179.09
2023-02-14T11:29:35.235Z,103175.22
2023-02-14T11:32:14.250Z,103168.69
2023-02-14T11:34:45.344Z,103162.97
2023-02-14T11:37:28.843Z,103173.78
2023-02-14T11:39:59.479Z,103166.47
2023-02-14T11:42:46.543Z,103160.72
2023-02-14T11:45:26.300Z,103163.97
2023-02-14T11:48:22.030Z,103162.75
2023-02-14T11:51:00.783Z,103153.59
2023-02-14T11:53:29.803Z,103160.34
2023-02-14T11:55:58.656Z,103145.22
2023-02-14T11:58:36.260Z,103144.22
2023-02-14T12:01:03.559Z,103147.69
2023-02-14T12:03:39.343Z,103139.78
2023-02-14T12:06:06.463Z,103141.84
2023-02-14T12:08:33.006Z,103140.13
2023-02-14T12:11:04.346Z,103127.06
2023-02-14T12:13:32.502Z,103134.28
2023-02-14T12:15:59.354Z,103124.03
2023-02-14T12:18:31.646Z,103128.47
2023-02-14T12:21:22.210Z,103105.91
2023-02-14T12:23:48.621Z,103118.13
2023-02-14T12:26:28.481Z,103119.84
2023-02-14T12:29:19.709Z,103107.41
2023-02-14T12:31:47.520Z,103120.28
2023-02-14T12:34:16.637Z,103111.47
2023-02-14T12:37:05.849Z,103110.53
2023-02-14T12:39:37.474Z,103110.59
2023-02-14T12:42:51.274Z,103098.53
2023-02-14T12:45:30.354Z,103096.75
2023-02-14T12:48:16.171Z,103097.00
2023-02-14T12:51:07.625Z,103097.19
2023-02-14T12:53:42.338Z,103094.00
2023-02-14T12:56:31.900Z,103094.25
2023-02-14T12:59:04.541Z,103087.53
2023-02-14T13:01:58.932Z,103078.25
2023-02-14T13:04:58.617Z,103072.31
2023-02-14T13:07:29.131Z,103080.53
2023-02-14T13:10:23.215Z,103070.47
2023-02-14T13:13:15.307Z,103069.19
2023-02-14T13:15:53.152Z,103057.34
2023-02-14T13:18:54.450Z,103056.91
2023-02-14T13:21:26.250Z,103058.97
2023-02-14T13:23:56.930Z,103060.25
2023-02-14T13:26:35.353Z,103050.06
2023-02-14T13:29:10.209Z,103056.53
2023-02-14T13:31:38.388Z,103064.59
2023-02-14T13:34:28.232Z,103061.28
2023-02-14T13:36:58.005Z,103045.75
2023-02-14T13:39:37.913Z,103038.16
2023-02-14T13:42:06.312Z,103055.78
2023-02-14T13:44:38.750Z,103047.91
2023-02-14T13:47:07.666Z,103042.63
2023-02-14T13:49:39.453Z,103038.16
2023-02-14T13:52:06.516Z,103039.09
2023-02-14T13:54:48.660Z,103043.56
2023-02-14T13:57:32.279Z,103031.44
2023-02-14T14:00:22.619Z,103024.56
2023-02-14T14:02:54.045Z,103033.38
2023-02-14T14:05:29.701Z,103025.63
2023-02-14T14:08:22.002Z,103023.13
2023-02-14T14:10:52.516Z,103011.88
2023-02-14T14:13:40.660Z,103013.69
2023-02-14T14:16:25.118Z,103012.84
2023-02-14T14:18:53.959Z,103014.66
2023-02-14T14:21:35.099Z,103006.91
2023-02-14T14:24:30.483Z,103009.78
2023-02-14T14:27:03.501Z,103010.88
2023-02-14T14:29:44.996Z,103009.28
2023-02-14T14:32:12.559Z,103008.66
2023-02-14T14:34:49.281Z,103007.03
2023-02-14T14:37:18.962Z,103008.94
2023-02-14T14:40:08.421Z,102999.44
2023-02-14T14:42:40.177Z,102999.47
2023-02-14T14:45:19.053Z,102999.59
2023-02-14T14:47:46.530Z,103000.53
2023-02-14T14:50:21.783Z,102991.00
2023-02-14T14:52:51.173Z,102992.84
2023-02-14T14:55:24.689Z,102987.66
2023-02-14T14:57:56.509Z,102989.56
2023-02-14T15:00:33.982Z,102992.25
2023-02-14T15:03:06.028Z,102985.34
2023-02-14T15:05:36.478Z,102981.88
2023-02-14T15:08:27.760Z,102985.44
2023-02-14T15:10:58.716Z,102977.66
2023-02-14T15:13:37.057Z,102982.94
2023-02-14T15:16:04.027Z,102969.91
2023-02-14T15:18:30.682Z,102973.44
2023-02-14T15:20:57.467Z,102966.47
2023-02-14T15:23:24.901Z,102967.34
2023-02-14T15:25:52.185Z,102967.38
2023-02-14T15:28:33.503Z,102956.00
2023-02-14T15:31:03.713Z,102956.00
2023-02-14T15:33:32.181Z,102962.97
2023-02-14T15:36:04.132Z,102953.38
2023-02-14T15:38:31.809Z,102946.34
2023-02-14T15:41:00.112Z,102951.53
2023-02-14T15:43:36.379Z,102937.50
2023-02-14T15:46:19.852Z,102940.06
2023-02-14T15:48:47.202Z,102947.91
2023-02-14T15:51:21.528Z,102939.94
2023-02-14T15:53:55.912Z,102934.59
2023-02-14T15:56:26.202Z,102936.09
2023-02-14T15:58:59.777Z,102941.13
2023-02-14T16:01:26.297Z,102928.81
2023-02-14T16:03:57.287Z,102928.69
2023-02-14T16:06:32.920Z,102932.00
2023-02-14T16:08:59.502Z,102926.53
2023-02-14T16:11:37.363Z,102920.19
2023-02-14T16:14:26.784Z,102924.31
2023-02-14T16:17:03.763Z,102923.16
2023-02-14T16:19:42.471Z,102920.25
2023-02-14T16:22:23.956Z,102915.56
2023-02-14T16:24:50.465Z,102924.91
2023-02-14T16:27:16.994Z,102919.47
2023-02-14T16:29:43.472Z,102927.91
2023-02-14T16:32:28.021Z,102924.09
2023-02-14T16:34:54.633Z,102922.13
2023-02-14T16:37:30.086Z,102906.13
2023-02-14T16:39:56.790Z,102917.31
2023-02-14T16:42:24.003Z,102914.41
2023-02-14T16:44:50.910Z,102924.50
2023-02-14T16:47:19.741Z,102916.19
2023-02-14T16:49:46.808Z,102918.53
2023-02-14T16:52:16.728Z,102911.94
2023-02-14T16:54:43.610Z,102915.91
2023-02-14T16:57:28.972Z,102911.88
2023-02-14T16:59:56.838Z,102917.72
2023-02-14T17:02:23.976Z,102922.53
2023-02-14T17:04:50.498Z,102922.09
2023-02-14T17:07:17.101Z,102918.28
2023-02-14T17:09:50.083Z,102916.06
2023-02-14T17:12:20.732Z,102918.25
2023-02-14T17:14:51.429Z,102923.75
2023-02-14T17:17:18.094Z,102924.91
2023-02-14T17:19:44.735Z,102920.13
2023-02-14T17:22:14.091Z,102922.97
2023-02-14T17:24:41.554Z,102923.41
2023-02-14T17:27:08.087Z,102921.25
2023-02-14T17:29:34.614Z,102923.31
2023-02-14T17:32:01.250Z,102924.56
2023-02-14T17:34:32.196Z,102924.88
2023-02-14T17:36:58.832Z,102913.19
2023-02-14T17:39:25.444Z,102923.94
2023-02-14T17:41:51.943Z,102914.03
2023-02-14T17:44:18.433Z,102930.97
2023-02-14T17:46:44.921Z,102921.91
2023-02-14T17:49:11.446Z,102924.97
2023-02-14T17:51:37.953Z,102920.16
2023-02-14T17:54:04.435Z,102920.66
2023-02-14T17:56:30.922Z,102927.13
2023-02-14T17:58:57.488Z,102920.75
2023-02-14T18:01:27.084Z,102907.16
2023-02-14T18:03:54.537Z,102915.66
2023-02-14T18:06:21.608Z,102915.31
2023-02-14T18:08:49.797Z,102913.13
2023-02-14T18:11:18.316Z,102905.66
2023-02-14T18:13:44.866Z,102906.38
2023-02-14T18:16:15.497Z,102910.31
2023-02-14T18:18:42.102Z,102906.69
2023-02-14T18:21:11.887Z,102892.28
2023-02-14T18:23:38.901Z,102898.28
2023-02-14T18:26:09.681Z,102908.31
2023-02-14T18:28:36.750Z,102896.84
2023-02-14T18:31:15.465Z,102893.84
2023-02-14T18:33:42.836Z,102905.66
2023-02-14T18:36:12.149Z,102891.34
2023-02-14T18:38:39.930Z,102899.97
2023-02-14T18:41:08.338Z,102892.81
2023-02-14T18:43:35.978Z,102891.69
2023-02-14T18:46:07.690Z,102891.47
2023-02-14T18:48:34.378Z,102891.19
2023-02-14T18:51:15.869Z,102879.44
2023-02-14T18:53:43.862Z,102893.16
2023-02-14T18:56:16.316Z,102890.22
2023-02-14T18:58:46.466Z,102893.19
2023-02-14T19:01:19.936Z,102898.19
2023-02-14T19:03:46.963Z,102891.03
2023-02-14T19:06:13.436Z,102890.75
2023-02-14T19:08:41.091Z,102880.78
2023-02-14T19:11:13.172Z,102877.06
2023-02-14T19:13:44.297Z,102879.56
2023-02-14T19:16:12.890Z,102882.66
2023-02-14T19:18:39.947Z,102873.75
2023-02-14T19:21:11.331Z,102877.75
2023-02-14T19:23:38.052Z,102875.03
2023-02-14T19:26:19.580Z,102879.97
2023-02-14T19:28:47.327Z,102872.00
2023-02-14T19:31:14.357Z,102874.28
2023-02-14T19:33:43.754Z,102859.13
2023-02-14T19:36:16.164Z,102874.56
2023-02-14T19:38:45.057Z,102864.00
2023-02-14T19:41:21.474Z,102857.34
2023-02-14T19:43:48.880Z,102870.22
2023-02-14T19:46:17.647Z,102859.59
2023-02-14T19:48:45.062Z,102861.88
2023-02-14T19:51:16.801Z,102864.94
2023-02-14T19:53:43.353Z,102864.81
2023-02-14T19:56:10.709Z,102864.53
2023-02-14T19:58:37.213Z,102856.59
2023-02-14T20:01:04.742Z,102858.94
2023-02-14T20:03:32.127Z,102847.38
2023-02-14T20:05:58.659Z,102863.78
2023-02-14T20:08:25.125Z,102861.00
2023-02-14T20:10:51.620Z,102863.38
2023-02-14T20:13:18.103Z,102865.03
2023-02-14T20:15:44.566Z,102859.69
2023-02-14T20:18:11.046Z,102854.41
2023-02-14T20:20:37.514Z,102856.72
2023-02-14T20:23:03.985Z,102858.25
2023-02-14T20:25:30.439Z,102852.94
2023-02-14T20:27:56.952Z,102853.59
2023-02-14T20:30:23.470Z,102853.47
2023-02-14T20:32:50.843Z,102848.13
2023-02-14T20:35:17.309Z,102846.22
2023-02-14T20:37:43.766Z,102846.03
2023-02-14T20:40:10.863Z,102842.44
2023-02-14T20:42:37.337Z,102843.09
2023-02-14T20:45:03.966Z,102841.22
2023-02-14T20:47:30.447Z,102835.06
2023-02-14T20:49:56.925Z,102831.38
2023-02-14T20:52:23.415Z,102843.25
2023-02-14T20:54:49.865Z,102837.97
2023-02-14T20:57:16.329Z,102834.41
2023-02-14T20:59:42.879Z,102826.53
2023-02-14T21:02:09.798Z,102820.34
2023-02-14T21:04:36.518Z,102820.19
2023-02-14T21:07:03.325Z,102818.34
2023-02-14T21:09:29.772Z,102814.72
2023-02-14T21:11:56.253Z,102819.69
2023-02-14T21:14:22.709Z,102815.34
2023-02-14T21:16:49.184Z,102809.25
2023-02-14T21:19:15.729Z,102800.41
2023-02-14T21:21:42.256Z,102802.91
2023-02-14T21:24:15.773Z,102801.84
2023-02-14T21:26:43.332Z,102804.34
2023-02-14T21:29:10.197Z,102798.16
2023-02-14T21:31:38.400Z,102801.44
2023-02-14T21:34:05.282Z,102796.22
2023-02-14T21:36:33.597Z,102795.88
2023-02-14T21:39:00.261Z,102796.78
2023-02-14T21:41:31.084Z,102789.53
2023-02-14T21:43:59.065Z,102808.53
2023-02-14T21:46:28.128Z,102797.16
2023-02-14T21:48:56.023Z,102802.28
2023-02-14T21:51:22.983Z,102810.81
2023-02-14T21:53:50.012Z,102805.47
2023-02-14T21:56:20.228Z,102794.00
2023-02-14T21:58:48.581Z,102799.47
2023-02-14T22:01:23.215Z,102795.06
2023-02-14T22:03:51.019Z,102791.63
2023-02-14T22:06:17.576Z,102788.16
2023-02-14T22:08:44.496Z,102788.06
2023-02-14T22:11:13.542Z,102778.34
2023-02-14T22:13:40.692Z,102790.72
2023-02-14T22:16:13.375Z,102780.28
2023-02-14T22:18:40.279Z,102784.06
2023-02-14T22:21:13.129Z,102778.03
2023-02-14T22:23:40.178Z,102786.25
2023-02-14T22:26:14.482Z,102781.19
2023-02-14T22:28:42.233Z,102775.34
2023-02-14T22:31:09.419Z,102775.50
2023-02-14T22:33:37.776Z,102779.94
2023-02-14T22:36:05.348Z,102769.75
2023-02-14T22:38:32.889Z,102775.03
2023-02-14T22:41:15.437Z,102767.34
2023-02-14T22:43:43.517Z,102762.28
2023-02-14T22:46:18.848Z,102766.63
2023-02-14T22:48:46.521Z,102762.38
2023-02-14T22:51:24.862Z,102753.69
2023-02-14T22:53:54.597Z,102755.13
2023-02-14T22:56:25.084Z,102753.38
2023-02-14T22:58:56.310Z,102752.16
2023-02-14T23:01:23.697Z,102754.38
2023-02-14T23:03:53.966Z,102754.78
2023-02-14T23:06:20.582Z,102756.94
2023-02-14T23:08:47.841Z,102760.75
2023-02-14T23:11:17.621Z,102752.31
2023-02-14T23:13:44.357Z,102770.25
2023-02-14T23:16:10.842Z,102768.25
2023-02-14T23:18:37.350Z,102764.44
2023-02-14T23:21:03.820Z,102765.88
2023-02-14T23:23:31.842Z,102753.47
2023-02-14T23:25:59.681Z,102755.84
2023-02-14T23:28:26.914Z,102749.59
2023-02-14T23:30:53.380Z,102751.81
2023-02-14T23:33:20.568Z,102748.09
2023-02-14T23:35:47.015Z,102742.72
2023-02-14T23:38:13.537Z,102739.00
2023-02-14T23:40:39.966Z,102732.72
2023-02-14T23:43:06.421Z,102732.47
2023-02-14T23:45:32.920Z,102733.06
2023-02-14T23:48:04.322Z,102734.59
2023-02-14T23:50:31.091Z,102728.47
2023-02-14T23:52:58.282Z,102724.88
2023-02-14T23:55:24.849Z,102724.66
2023-02-14T23:57:51.302Z,102719.28
